Time;durP1;ratioP1;P1;durP2;ratioP2;P2;SDS_P1;SDS_P2;PMS_P1;PMS_P2;Temp;Humidity;BMP_temperature;BMP_pressure;BME280_temperature;BME280_humidity;BME280_pressure;Samples;Min_cycle;Max_cycle;Signal;HPM_P1;HPM_P2
2024/01/13 00:00:05;;;;;;;9.07;3.03;;;3.50;99.90;;;;;;5093607;28;20044;-67
2024/01/13 00:02:30;;;;;;;10.88;3.45;;;3.40;99.90;;;;;;5092322;28;20036;-67
2024/01/13 00:04:56;;;;;;;8.13;2.63;;;3.50;99.90;;;;;;5093027;28;20048;-67
2024/01/13 00:07:22;;;;;;;9.57;3.08;;;3.50;99.90;;;;;;5091620;28;20512;-67
2024/01/13 00:09:47;;;;;;;10.38;2.72;;;3.40;99.90;;;;;;5093689;28;20032;-67
2024/01/13 00:12:13;;;;;;;9.93;2.45;;;3.40;99.90;;;;;;5092533;28;20036;-67
2024/01/13 00:14:39;;;;;;;14.93;2.70;;;3.50;99.90;;;;;;5091499;28;20123;-67
2024/01/13 00:17:04;;;;;;;9.32;2.80;;;3.50;99.90;;;;;;5092597;28;20039;-67
2024/01/13 00:19:30;;;;;;;16.00;3.10;;;3.40;99.90;;;;;;5091934;28;20040;-67
2024/01/13 00:21:55;;;;;;;7.80;2.47;;;3.60;99.90;;;;;;5092843;28;20089;-67
2024/01/13 00:24:21;;;;;;;7.32;2.08;;;3.50;99.90;;;;;;5092216;28;20051;-67
2024/01/13 00:26:47;;;;;;;7.88;2.45;;;3.50;99.90;;;;;;5108739;28;20032;-67
2024/01/13 00:29:12;;;;;;;7.93;2.15;;;3.50;99.90;;;;;;5091506;28;20043;-67
2024/01/13 00:31:38;;;;;;;7.25;2.60;;;3.60;99.90;;;;;;5093364;28;20036;-67
2024/01/13 00:34:04;;;;;;;7.97;2.00;;;3.60;99.90;;;;;;5091984;28;20032;-67
2024/01/13 00:36:30;;;;;;;5.70;2.10;;;3.50;99.90;;;;;;5091423;28;20054;-67
2024/01/13 00:38:55;;;;;;;8.70;2.20;;;3.50;99.90;;;;;;5091352;28;20549;-67
2024/01/13 00:41:21;;;;;;;5.60;2.00;;;3.50;99.90;;;;;;5090706;28;20039;-67
2024/01/13 00:43:47;;;;;;;11.98;3.45;;;3.60;99.90;;;;;;5109054;28;20040;-66
2024/01/13 00:46:13;;;;;;;9.85;3.75;;;3.60;99.90;;;;;;5091790;28;20515;-67
2024/01/13 00:48:38;;;;;;;8.95;3.60;;;3.50;99.90;;;;;;5090923;28;20048;-67
2024/01/13 00:51:07;;;;;;;11.23;3.13;;;3.50;99.90;;;;;;5091778;28;20131;-67
2024/01/13 00:53:33;;;;;;;8.60;2.80;;;3.50;99.90;;;;;;5091228;28;20048;-67
2024/01/13 00:55:58;;;;;;;9.98;2.63;;;3.60;99.90;;;;;;5074099;28;20071;-67
2024/01/13 00:58:24;;;;;;;7.35;2.58;;;3.50;99.90;;;;;;5091501;28;20078;-67
2024/01/13 01:00:50;;;;;;;7.03;2.20;;;3.50;99.90;;;;;;5091531;28;20051;-67
2024/01/13 01:03:15;;;;;;;8.73;2.58;;;3.50;99.90;;;;;;5090852;28;20032;-67
2024/01/13 01:05:41;;;;;;;9.43;2.40;;;3.50;99.90;;;;;;5091391;28;20054;-67
2024/01/13 01:08:07;;;;;;;6.32;1.83;;;3.40;99.90;;;;;;5091939;28;20062;-67
2024/01/13 01:10:32;;;;;;;6.00;1.60;;;3.50;99.90;;;;;;5090245;28;20404;-67
2024/01/13 01:12:58;;;;;;;10.82;2.03;;;3.40;99.90;;;;;;5091651;28;20043;-67
2024/01/13 01:15:23;;;;;;;12.13;2.45;;;3.50;99.90;;;;;;5091218;28;20040;-67
2024/01/13 01:17:49;;;;;;;6.13;1.58;;;3.50;99.90;;;;;;5090180;28;20050;-67
2024/01/13 01:20:15;;;;;;;4.63;1.75;;;3.60;99.90;;;;;;5090944;28;20061;-67
2024/01/13 01:22:40;;;;;;;7.40;1.58;;;3.50;99.90;;;;;;5091199;28;20097;-67
2024/01/13 01:25:06;;;;;;;7.22;1.90;;;3.50;99.90;;;;;;5074103;28;20492;-67
2024/01/13 01:27:32;;;;;;;5.15;1.65;;;3.60;99.90;;;;;;5091252;28;20040;-67
2024/01/13 01:29:58;;;;;;;5.75;2.08;;;3.50;99.90;;;;;;5091085;28;20040;-67
2024/01/13 01:32:23;;;;;;;4.53;1.52;;;3.50;99.90;;;;;;5090102;28;20038;-67
2024/01/13 01:34:49;;;;;;;6.32;1.83;;;3.50;99.90;;;;;;5090697;28;20097;-67
2024/01/13 01:37:15;;;;;;;8.55;2.40;;;3.50;99.90;;;;;;5090573;28;20435;-67
2024/01/13 01:39:40;;;;;;;8.82;2.00;;;3.60;99.90;;;;;;5073899;28;20040;-67
2024/01/13 01:42:06;;;;;;;9.60;2.00;;;3.50;99.90;;;;;;5091044;28;20032;-67
2024/01/13 01:44:31;;;;;;;7.03;1.50;;;3.60;99.90;;;;;;5089791;28;20126;-67
2024/01/13 01:46:59;;;;;;;6.38;2.05;;;3.60;99.90;;;;;;5091224;28;20048;-67
2024/01/13 01:49:25;;;;;;;4.38;1.63;;;3.60;99.90;;;;;;5090500;28;20058;-67
2024/01/13 01:51:51;;;;;;;13.55;2.80;;;3.50;99.90;;;;;;5089835;28;20409;-67
2024/01/13 01:54:17;;;;;;;9.02;2.25;;;3.50;99.90;;;;;;5090228;28;20067;-67
2024/01/13 01:56:43;;;;;;;6.07;1.60;;;3.60;99.90;;;;;;5090910;28;20089;-67
2024/01/13 01:59:09;;;;;;;7.40;1.77;;;3.50;99.90;;;;;;5089921;28;20039;-67
2024/01/13 02:01:36;;;;;;;4.05;1.52;;;3.50;99.90;;;;;;5090642;28;20079;-67
2024/01/13 02:04:03;;;;;;;13.38;1.90;;;3.50;99.90;;;;;;5090995;28;20067;-67
2024/01/13 02:06:30;;;;;;;4.28;1.55;;;3.60;99.90;;;;;;5089699;28;20044;-67
2024/01/13 02:08:56;;;;;;;4.68;1.52;;;3.50;99.90;;;;;;5090871;28;20120;-67
2024/01/13 02:11:21;;;;;;;5.88;1.90;;;3.60;99.90;;;;;;5090312;28;20071;-67
2024/01/13 02:13:48;;;;;;;6.35;1.77;;;3.40;99.90;;;;;;5089872;28;20481;-67
2024/01/13 02:16:15;;;;;;;5.78;1.60;;;3.40;99.90;;;;;;5090455;28;20078;-67
2024/01/13 02:18:41;;;;;;;4.60;1.50;;;3.50;99.90;;;;;;5090631;28;20105;-67
2024/01/13 02:21:07;;;;;;;5.00;1.52;;;3.50;99.90;;;;;;5090322;28;20076;-67
2024/01/13 02:23:33;;;;;;;5.60;1.58;;;3.40;99.90;;;;;;5090510;28;20566;-67
2024/01/13 02:25:59;;;;;;;3.67;1.40;;;3.30;99.90;;;;;;5090954;28;20054;-67
2024/01/13 02:28:24;;;;;;;3.38;1.10;;;3.30;99.90;;;;;;5089207;28;20035;-67
2024/01/13 02:30:50;;;;;;;5.35;1.30;;;3.30;99.90;;;;;;5090370;28;20047;-67
2024/01/13 02:33:16;;;;;;;3.08;1.02;;;3.30;99.90;;;;;;5090118;28;20047;-67
2024/01/13 02:35:41;;;;;;;4.25;1.20;;;3.40;99.90;;;;;;5072826;28;20040;-67
2024/01/13 02:38:07;;;;;;;3.30;0.90;;;3.20;99.90;;;;;;5107836;28;20040;-67
2024/01/13 02:40:34;;;;;;;4.32;1.20;;;3.30;99.90;;;;;;5090157;28;20047;-67
2024/01/13 02:42:59;;;;;;;4.90;1.05;;;3.40;99.90;;;;;;5089882;28;20048;-67
2024/01/13 02:45:25;;;;;;;6.20;1.17;;;3.40;99.90;;;;;;5090385;28;20439;-67
2024/01/13 02:48:09;;;;;;;4.00;0.90;;;3.40;99.90;;;;;;5089438;28;20447;-67
2024/01/13 02:50:34;;;;;;;4.28;0.90;;;3.40;99.90;;;;;;5073412;28;20048;-67
2024/01/13 02:53:00;;;;;;;6.22;1.35;;;3.40;99.90;;;;;;5091818;28;20055;-67
2024/01/13 02:55:26;;;;;;;5.57;1.00;;;3.40;99.90;;;;;;5089387;28;20074;-67
2024/01/13 02:57:51;;;;;;;5.57;1.10;;;3.30;99.90;;;;;;5090078;28;20040;-67
2024/01/13 03:00:17;;;;;;;4.97;1.23;;;3.50;99.90;;;;;;5090033;28;20120;-67
2024/01/13 03:02:44;;;;;;;8.23;1.48;;;3.50;99.90;;;;;;5090774;28;20452;-67
2024/01/13 03:05:10;;;;;;;6.53;1.98;;;3.50;99.90;;;;;;5093501;28;20090;-67
2024/01/13 03:07:35;;;;;;;3.92;1.30;;;3.40;99.90;;;;;;5093500;28;20036;-67
2024/01/13 03:10:02;;;;;;;4.85;1.42;;;3.40;99.90;;;;;;5093507;28;20036;-67
2024/01/13 03:12:27;;;;;;;4.32;1.38;;;3.40;99.90;;;;;;5093481;28;20047;-67
2024/01/13 03:14:53;;;;;;;6.30;1.27;;;3.50;99.90;;;;;;5093502;28;20044;-67
2024/01/13 03:17:19;;;;;;;6.88;1.40;;;3.50;99.90;;;;;;5092214;28;20040;-67
2024/01/13 03:19:44;;;;;;;7.78;1.95;;;3.50;99.90;;;;;;5093780;28;20047;-67
2024/01/13 03:22:10;;;;;;;6.00;1.83;;;3.50;99.90;;;;;;5093415;28;20123;-67
2024/01/13 03:24:36;;;;;;;9.85;1.77;;;3.40;99.90;;;;;;5092769;28;20040;-67
2024/01/13 03:27:01;;;;;;;5.10;1.40;;;3.50;99.90;;;;;;5093387;28;20036;-67
2024/01/13 03:29:27;;;;;;;4.63;1.40;;;3.50;99.90;;;;;;5093098;28;20044;-67
2024/01/13 03:31:52;;;;;;;5.45;1.38;;;3.50;99.90;;;;;;5092704;28;20040;-67
2024/01/13 03:34:18;;;;;;;6.57;1.73;;;3.40;99.90;;;;;;5093182;28;20044;-67
2024/01/13 03:36:44;;;;;;;28.23;4.95;;;3.50;99.90;;;;;;5093341;28;20542;-67
2024/01/13 03:39:09;;;;;;;5.95;1.70;;;3.40;99.90;;;;;;5092540;28;20040;-67
2024/01/13 03:41:35;;;;;;;7.43;1.77;;;3.40;99.90;;;;;;5110100;28;20040;-67
2024/01/13 03:44:01;;;;;;;9.40;2.53;;;3.50;99.90;;;;;;5092560;28;20040;-67
2024/01/13 03:46:27;;;;;;;9.57;2.38;;;3.50;99.90;;;;;;5092831;28;20093;-67
2024/01/13 03:48:53;;;;;;;6.60;2.03;;;3.50;99.90;;;;;;5092875;28;20036;-67
2024/01/13 03:51:18;;;;;;;5.45;1.80;;;3.50;99.90;;;;;;5091998;28;20131;-67
2024/01/13 03:53:45;;;;;;;9.80;1.70;;;3.60;99.90;;;;;;5075729;28;20039;-67
2024/01/13 03:56:10;;;;;;;6.97;1.88;;;3.60;99.90;;;;;;5092740;28;20409;-67
2024/01/13 03:58:36;;;;;;;6.78;1.98;;;3.60;99.90;;;;;;5091803;28;20039;-67
2024/01/13 04:01:03;;;;;;;5.28;1.67;;;3.60;99.90;;;;;;5092555;28;20036;-67
2024/01/13 04:03:28;;;;;;;5.18;1.60;;;3.50;99.90;;;;;;5109827;28;20073;-67
2024/01/13 04:05:54;;;;;;;5.80;1.85;;;3.60;99.90;;;;;;5091988;28;20118;-67
2024/01/13 04:08:21;;;;;;;8.77;2.08;;;3.60;99.90;;;;;;5092481;28;21626;-67
2024/01/13 04:10:47;;;;;;;10.68;1.88;;;3.60;99.90;;;;;;5092527;28;20055;-67
2024/01/13 04:13:14;;;;;;;7.43;2.42;;;3.40;99.90;;;;;;5091917;28;20087;-67
2024/01/13 04:15:40;;;;;;;4.45;1.50;;;3.50;99.90;;;;;;5092123;28;20615;-67
2024/01/13 04:18:06;;;;;;;7.68;1.80;;;3.50;99.90;;;;;;5092301;28;20118;-67
2024/01/13 04:20:31;;;;;;;6.60;2.13;;;3.60;99.90;;;;;;5091251;28;20040;-67
2024/01/13 04:22:57;;;;;;;5.75;1.73;;;3.60;99.90;;;;;;5092695;28;20040;-67
2024/01/13 04:25:23;;;;;;;9.23;1.83;;;3.50;99.90;;;;;;5091760;28;20043;-67
2024/01/13 04:27:50;;;;;;;5.53;1.90;;;3.60;99.90;;;;;;5091593;28;20431;-67
2024/01/13 04:30:15;;;;;;;4.97;1.50;;;3.50;99.90;;;;;;5075056;28;20044;-67
2024/01/13 04:32:42;;;;;;;5.55;1.80;;;3.60;99.90;;;;;;5092311;28;20051;-67
2024/01/13 04:35:08;;;;;;;10.65;1.58;;;3.50;99.90;;;;;;5092960;28;20094;-67
2024/01/13 04:37:35;;;;;;;10.70;2.88;;;3.50;99.90;;;;;;5091946;28;20050;-67
2024/01/13 04:40:00;;;;;;;5.18;2.15;;;3.50;99.90;;;;;;5091831;28;20040;-67
2024/01/13 04:42:26;;;;;;;5.80;1.77;;;3.40;99.90;;;;;;5091288;28;20374;-67
2024/01/13 04:44:51;;;;;;;7.82;1.67;;;3.40;99.90;;;;;;5075080;28;20416;-67
2024/01/13 04:47:17;;;;;;;5.35;1.60;;;3.40;99.90;;;;;;5091402;28;20481;-67
2024/01/13 04:49:43;;;;;;;10.13;3.20;;;3.40;99.90;;;;;;5091506;28;20055;-67
2024/01/13 04:52:09;;;;;;;6.22;1.30;;;3.40;99.90;;;;;;5091886;28;20036;-67
2024/01/13 04:54:34;;;;;;;5.65;1.92;;;3.50;99.90;;;;;;5090267;28;20090;-67
2024/01/13 04:57:00;;;;;;;6.25;1.17;;;3.60;99.90;;;;;;5091942;28;20119;-67
2024/01/13 04:59:26;;;;;;;7.38;1.50;;;3.50;99.90;;;;;;5091531;28;20040;-67
2024/01/13 05:01:53;;;;;;;6.30;1.48;;;3.60;99.90;;;;;;5090736;28;20118;-67
2024/01/13 05:04:18;;;;;;;5.22;2.10;;;3.60;99.90;;;;;;5091655;28;20389;-67
2024/01/13 05:06:44;;;;;;;5.28;1.15;;;3.50;99.90;;;;;;5091569;28;20032;-67
2024/01/13 05:09:11;;;;;;;3.95;1.25;;;3.60;99.90;;;;;;5090681;28;20051;-67
2024/01/13 05:11:36;;;;;;;4.10;1.33;;;3.50;99.90;;;;;;5091345;28;20042;-67
2024/01/13 05:14:02;;;;;;;2.78;1.05;;;3.50;99.90;;;;;;5091595;28;20435;-67
2024/01/13 05:16:28;;;;;;;5.50;1.33;;;3.30;99.90;;;;;;5090367;28;20484;-67
2024/01/13 05:18:53;;;;;;;3.20;1.00;;;3.30;99.90;;;;;;5092602;28;20491;-67
2024/01/13 05:21:19;;;;;;;4.65;1.15;;;3.30;99.90;;;;;;5091273;28;20039;-67
2024/01/13 05:23:45;;;;;;;5.20;1.17;;;3.30;99.90;;;;;;5090335;28;20066;-67
2024/01/13 05:26:11;;;;;;;3.95;1.08;;;3.10;99.90;;;;;;5090870;28;20143;-67
2024/01/13 05:28:36;;;;;;;3.28;1.17;;;3.20;99.90;;;;;;5090905;28;20496;-67
2024/01/13 05:31:02;;;;;;;6.25;1.30;;;3.20;99.90;;;;;;5091097;28;20472;-67
2024/01/13 05:33:28;;;;;;;3.60;1.30;;;3.20;99.90;;;;;;5107964;28;20481;-67
2024/01/13 05:35:53;;;;;;;3.38;1.10;;;3.30;99.90;;;;;;5090759;28;20072;-67
2024/01/13 05:38:19;;;;;;;4.28;1.30;;;3.20;99.90;;;;;;5090508;28;20043;-67
2024/01/13 05:40:45;;;;;;;5.53;1.17;;;3.30;99.90;;;;;;5090251;28;20435;-67
2024/01/13 05:43:11;;;;;;;4.03;1.33;;;3.30;99.90;;;;;;5090719;28;20031;-67
2024/01/13 05:45:37;;;;;;;2.40;1.02;;;3.40;99.90;;;;;;5090394;28;20040;-67
2024/01/13 05:48:03;;;;;;;2.95;0.95;;;3.30;99.90;;;;;;5091322;28;20039;-67
2024/01/13 05:50:29;;;;;;;2.63;0.88;;;3.40;99.90;;;;;;5090369;28;20454;-66
2024/01/13 05:52:54;;;;;;;2.78;0.90;;;3.50;99.90;;;;;;5090371;28;20119;-67
2024/01/13 05:55:20;;;;;;;3.45;1.05;;;3.50;99.90;;;;;;5106860;28;20097;-67
2024/01/13 05:57:47;;;;;;;3.40;1.33;;;3.60;99.90;;;;;;5107063;28;20077;-67
2024/01/13 06:00:13;;;;;;;4.40;1.40;;;3.50;99.90;;;;;;5090716;28;20040;-67
2024/01/13 06:02:39;;;;;;;5.55;1.77;;;3.40;99.90;;;;;;5090713;28;20047;-67
2024/01/13 06:05:06;;;;;;;4.03;1.17;;;3.50;99.90;;;;;;5107081;28;20048;-67
2024/01/13 06:07:32;;;;;;;4.85;1.20;;;3.60;99.90;;;;;;5090222;28;20044;-67
2024/01/13 06:09:57;;;;;;;3.35;1.20;;;3.50;99.90;;;;;;5090696;28;20040;-67
2024/01/13 06:12:23;;;;;;;2.60;0.75;;;3.70;99.90;;;;;;5089655;28;20071;-67
2024/01/13 06:14:49;;;;;;;2.85;0.90;;;3.60;99.90;;;;;;5090522;28;20044;-67
2024/01/13 06:17:14;;;;;;;7.10;0.85;;;3.70;99.90;;;;;;5091764;28;20122;-67
2024/01/13 06:19:40;;;;;;;2.58;0.98;;;3.80;99.90;;;;;;5089847;28;20040;-67
2024/01/13 06:22:05;;;;;;;2.65;0.82;;;3.70;99.90;;;;;;5090741;28;20036;-67
2024/01/13 06:24:31;;;;;;;2.17;0.80;;;3.70;99.90;;;;;;5090239;28;20081;-67
2024/01/13 06:26:57;;;;;;;4.15;0.93;;;3.70;99.90;;;;;;5107257;28;20101;-67
2024/01/13 06:29:22;;;;;;;5.32;1.20;;;3.70;99.90;;;;;;5107322;28;20047;-67
2024/01/13 06:31:48;;;;;;;4.28;1.45;;;3.80;99.90;;;;;;5090186;28;20043;-67
2024/01/13 06:34:14;;;;;;;3.30;1.33;;;3.60;99.90;;;;;;5089841;28;20036;-67
2024/01/13 06:36:39;;;;;;;4.45;1.70;;;3.80;99.90;;;;;;5090823;28;20105;-67
2024/01/13 06:39:05;;;;;;;4.68;1.52;;;3.60;99.90;;;;;;5094289;28;20378;-67
2024/01/13 06:41:31;;;;;;;4.10;1.67;;;3.70;99.90;;;;;;5093289;28;20063;-67
2024/01/13 06:43:57;;;;;;;16.63;12.43;;;3.70;99.90;;;;;;5094473;28;20039;-67
2024/01/13 06:46:22;;;;;;;7.82;4.97;;;3.80;99.90;;;;;;5093548;28;20408;-67
2024/01/13 06:48:48;;;;;;;7.43;2.33;;;3.70;99.90;;;;;;5110688;28;20063;-67
2024/01/13 06:51:14;;;;;;;5.20;2.80;;;3.80;99.90;;;;;;5094085;28;20040;-67
2024/01/13 06:53:40;;;;;;;8.57;2.75;;;3.70;99.90;;;;;;5093518;28;20508;-67
2024/01/13 06:56:07;;;;;;;5.78;2.40;;;3.70;99.90;;;;;;5093689;28;20083;-67
2024/01/13 06:58:33;;;;;;;6.25;2.15;;;3.70;99.90;;;;;;5110980;28;20133;-67
2024/01/13 07:00:59;;;;;;;9.25;2.95;;;3.60;99.90;;;;;;5076222;28;20497;-67
2024/01/13 07:03:25;;;;;;;9.27;3.03;;;3.60;99.90;;;;;;5094189;28;20044;-67
2024/01/13 07:05:50;;;;;;;9.07;3.88;;;3.70;99.90;;;;;;5093025;28;20047;-67
2024/01/13 07:08:16;;;;;;;9.55;4.63;;;3.60;99.90;;;;;;5092373;28;20048;-67
2024/01/13 07:10:41;;;;;;;13.10;6.50;;;3.60;99.90;;;;;;5093824;28;20118;-67
2024/01/13 07:13:07;;;;;;;12.48;5.97;;;3.70;99.90;;;;;;5094089;28;20048;-67
2024/01/13 07:15:33;;;;;;;17.58;7.78;;;3.60;99.90;;;;;;5092679;28;20121;-67
2024/01/13 07:18:00;;;;;;;19.35;10.10;;;3.70;99.90;;;;;;5094186;28;20109;-67
2024/01/13 07:20:26;;;;;;;21.17;11.75;;;3.70;99.90;;;;;;5093502;28;20556;-68
2024/01/13 07:22:53;;;;;;;27.38;14.60;;;3.70;99.90;;;;;;5092686;28;20032;-67
2024/01/13 07:25:19;;;;;;;34.65;17.33;;;3.70;99.90;;;;;;5093313;28;20101;-68
2024/01/13 07:27:44;;;;;;;33.95;19.02;;;3.60;99.90;;;;;;5093105;28;20040;-67
2024/01/13 07:30:10;;;;;;;42.30;20.40;;;3.70;99.90;;;;;;5075558;28;20127;-68
2024/01/13 07:32:36;;;;;;;42.92;21.92;;;3.70;99.90;;;;;;5093216;28;20075;-67
2024/01/13 07:35:02;;;;;;;37.60;21.00;;;3.70;99.90;;;;;;5093120;28;20087;-68
2024/01/13 07:37:28;;;;;;;39.08;21.08;;;3.70;99.90;;;;;;5075163;28;20036;-68
2024/01/13 07:39:54;;;;;;;38.75;20.15;;;3.60;99.90;;;;;;5093026;28;20040;-68
2024/01/13 07:42:19;;;;;;;32.92;19.42;;;3.60;99.90;;;;;;5093418;28;20028;-68
2024/01/13 07:44:45;;;;;;;41.05;21.83;;;3.70;99.90;;;;;;5109465;28;20123;-68
2024/01/13 07:47:11;;;;;;;42.72;20.83;;;3.70;99.90;;;;;;5076233;28;20039;-68
2024/01/13 07:49:37;;;;;;;40.00;20.13;;;3.60;99.90;;;;;;5092578;28;20052;-68
2024/01/13 07:52:03;;;;;;;40.20;21.35;;;3.70;99.90;;;;;;5092491;28;20078;-68
2024/01/13 07:54:28;;;;;;;39.50;20.83;;;3.80;99.90;;;;;;5092656;28;20052;-67
2024/01/13 07:56:54;;;;;;;36.97;20.17;;;3.70;99.90;;;;;;5092594;28;20573;-67
2024/01/13 07:59:21;;;;;;;42.70;21.80;;;3.70;99.90;;;;;;5108847;28;20044;-68
2024/01/13 08:01:47;;;;;;;39.67;21.08;;;3.70;99.90;;;;;;5074672;28;20067;-68
2024/01/13 08:04:14;;;;;;;39.63;21.33;;;3.70;99.90;;;;;;5091805;28;20149;-68
2024/01/13 08:06:41;;;;;;;41.08;22.15;;;3.80;99.90;;;;;;5109284;28;20055;-66
2024/01/13 08:09:06;;;;;;;44.65;24.00;;;3.80;99.90;;;;;;5092422;28;20036;-67
2024/01/13 08:11:32;;;;;;;47.40;23.85;;;3.80;99.90;;;;;;5091334;28;20039;-68
2024/01/13 08:13:58;;;;;;;49.22;24.60;;;3.80;99.90;;;;;;5091285;28;20035;-67
2024/01/13 08:16:24;;;;;;;39.67;23.58;;;3.70;99.90;;;;;;5090077;28;20040;-67
2024/01/13 08:18:50;;;;;;;43.85;23.13;;;3.70;99.90;;;;;;5089571;28;20162;-68
2024/01/13 08:21:15;;;;;;;46.63;25.08;;;3.70;99.90;;;;;;5093072;28;20112;-68
2024/01/13 08:23:41;;;;;;;44.85;25.63;;;3.80;99.90;;;;;;5108341;28;20032;-68
2024/01/13 08:26:07;;;;;;;43.22;25.20;;;3.80;99.90;;;;;;5089035;28;20044;-68
2024/01/13 08:28:33;;;;;;;44.80;26.23;;;3.80;99.90;;;;;;5091539;28;20073;-68
2024/01/13 08:30:59;;;;;;;52.47;24.35;;;3.90;99.90;;;;;;5092199;28;20047;-68
2024/01/13 08:33:25;;;;;;;47.88;23.35;;;3.90;99.90;;;;;;5090468;28;20492;-68
2024/01/13 08:35:50;;;;;;;45.75;25.33;;;3.80;99.90;;;;;;5088466;28;20139;-68
2024/01/13 08:38:16;;;;;;;49.53;26.25;;;3.80;99.90;;;;;;5089162;28;20048;-68
2024/01/13 08:40:44;;;;;;;44.08;23.48;;;3.80;99.90;;;;;;5089378;28;20450;-68
2024/01/13 08:43:10;;;;;;;55.67;31.50;;;3.90;99.90;;;;;;5072604;28;20040;-68
2024/01/13 08:45:36;;;;;;;46.83;26.58;;;3.80;99.90;;;;;;5089744;28;20036;-68
2024/01/13 08:48:01;;;;;;;65.00;37.17;;;3.80;99.90;;;;;;5090105;28;20063;-68
2024/01/13 08:50:27;;;;;;;52.83;30.13;;;3.90;99.90;;;;;;5089349;28;20087;-68
2024/01/13 08:52:55;;;;;;;49.97;27.85;;;3.90;99.90;;;;;;5088938;28;20523;-68
2024/01/13 08:55:27;;;;;;;50.17;28.83;;;3.80;99.90;;;;;;5068326;28;20055;-67
2024/01/13 08:57:52;;;;;;;42.38;25.05;;;3.90;99.90;;;;;;5086470;28;20541;-68
2024/01/13 09:00:19;;;;;;;47.80;25.40;;;3.90;99.90;;;;;;5086986;28;20032;-68
2024/01/13 09:02:45;;;;;;;41.55;24.73;;;4.00;99.90;;;;;;5104012;28;20042;-68
2024/01/13 09:05:11;;;;;;;50.30;23.20;;;3.90;99.90;;;;;;5087806;28;20067;-68
2024/01/13 09:07:38;;;;;;;40.50;23.05;;;4.00;99.90;;;;;;5086820;28;20086;-68
2024/01/13 09:10:04;;;;;;;50.35;23.98;;;3.90;99.90;;;;;;5088225;28;20461;-68
2024/01/13 09:12:30;;;;;;;41.00;21.98;;;3.90;99.90;;;;;;5086588;28;20079;-68
2024/01/13 09:14:56;;;;;;;35.35;20.15;;;4.00;99.90;;;;;;5087146;28;20451;-68
2024/01/13 09:17:22;;;;;;;37.83;20.42;;;3.90;99.90;;;;;;5087467;28;20054;-68
2024/01/13 09:19:48;;;;;;;36.15;20.52;;;4.00;99.90;;;;;;5071147;28;20460;-68
2024/01/13 09:22:14;;;;;;;38.47;18.90;;;4.00;99.90;;;;;;5087075;28;20036;-69
2024/01/13 09:24:43;;;;;;;34.08;18.33;;;4.00;99.90;;;;;;5088820;28;20202;-69
2024/01/13 09:27:09;;;;;;;37.08;19.25;;;4.00;99.90;;;;;;5071830;28;20054;-68
2024/01/13 09:29:35;;;;;;;31.77;17.58;;;4.00;99.90;;;;;;5087666;28;20044;-67
2024/01/13 09:32:04;;;;;;;30.67;18.13;;;4.00;99.90;;;;;;5088627;28;20047;-68
2024/01/13 09:34:30;;;;;;;36.80;19.10;;;4.00;99.90;;;;;;5087697;28;20459;-67
2024/01/13 09:36:55;;;;;;;58.17;28.92;;;4.00;99.90;;;;;;5088010;28;20122;-67
2024/01/13 09:39:22;;;;;;;49.25;27.58;;;4.10;99.90;;;;;;5087357;28;20472;-67
2024/01/13 09:41:48;;;;;;;31.80;18.38;;;4.10;99.90;;;;;;5088214;28;20382;-68
2024/01/13 09:44:25;;;;;;;34.92;15.77;;;4.20;99.90;;;;;;5087622;28;20488;-67
2024/01/13 09:46:52;;;;;;;32.53;15.63;;;4.20;99.90;;;;;;5087874;28;20035;-67
2024/01/13 09:49:20;;;;;;;32.35;15.65;;;4.20;99.90;;;;;;5089263;28;20527;-68
2024/01/13 09:51:46;;;;;;;31.92;16.45;;;4.20;99.90;;;;;;5090375;28;20044;-68
2024/01/13 09:54:17;;;;;;;34.80;17.10;;;4.20;99.90;;;;;;5090314;28;20138;-67
2024/01/13 09:56:46;;;;;;;31.55;13.25;;;4.20;99.90;;;;;;5106358;28;20056;-67
2024/01/13 09:59:12;;;;;;;24.13;14.32;;;4.30;99.90;;;;;;5089828;28;20123;-66
2024/01/13 10:01:38;;;;;;;25.42;12.77;;;4.40;99.90;;;;;;5089874;28;20451;-68
2024/01/13 10:04:07;;;;;;;24.75;11.70;;;4.30;99.90;;;;;;5089550;28;20044;-68
2024/01/13 10:06:34;;;;;;;26.30;12.18;;;4.50;99.90;;;;;;5090310;28;20059;-68
2024/01/13 10:09:00;;;;;;;25.70;12.20;;;4.40;99.90;;;;;;5090812;28;20074;-68
2024/01/13 10:11:28;;;;;;;21.90;10.38;;;4.50;99.90;;;;;;5108201;28;20047;-68
2024/01/13 10:14:05;;;;;;;19.17;9.20;;;4.50;99.90;;;;;;5077771;28;20134;-68
2024/01/13 10:16:33;;;;;;;19.17;8.68;;;4.50;99.90;;;;;;5076770;28;20032;-68
2024/01/13 10:19:06;;;;;;;17.58;9.60;;;4.50;99.90;;;;;;5110901;28;20498;-68
2024/01/13 10:21:33;;;;;;;19.60;8.57;;;4.50;99.90;;;;;;5093746;28;20028;-68
2024/01/13 10:24:00;;;;;;;20.15;8.52;;;4.50;99.90;;;;;;5077512;28;20040;-68
2024/01/13 10:26:29;;;;;;;18.77;9.55;;;4.50;99.90;;;;;;5093765;28;20040;-68
2024/01/13 10:28:55;;;;;;;18.25;8.52;;;4.50;99.90;;;;;;5094535;28;20119;-68
2024/01/13 10:31:21;;;;;;;15.65;6.70;;;4.50;99.90;;;;;;5093539;28;20101;-68
2024/01/13 10:33:51;;;;;;;18.42;6.55;;;4.60;99.90;;;;;;5093242;28;20048;-68
2024/01/13 10:36:22;;;;;;;15.75;5.47;;;4.60;99.90;;;;;;5094222;28;20055;-68
2024/01/13 10:38:48;;;;;;;12.60;5.05;;;4.60;99.90;;;;;;5093644;28;20036;-68
2024/01/13 10:41:14;;;;;;;13.80;6.97;;;4.60;99.90;;;;;;5093321;28;20388;-68
2024/01/13 10:43:46;;;;;;;12.27;4.93;;;4.60;99.90;;;;;;5094565;28;20032;-68
2024/01/13 10:46:18;;;;;;;10.43;5.10;;;4.60;99.90;;;;;;5093131;28;20507;-68
2024/01/13 10:48:46;;;;;;;11.70;4.55;;;4.60;99.90;;;;;;5093676;28;20047;-68
2024/01/13 10:51:31;;;;;;;10.90;4.90;;;4.60;99.90;;;;;;5093843;28;20044;-68
2024/01/13 10:53:59;;;;;;;10.02;4.10;;;4.60;99.90;;;;;;5093294;28;20119;-68
2024/01/13 10:56:29;;;;;;;13.25;3.75;;;4.60;99.90;;;;;;5094663;28;20040;-68
2024/01/13 10:58:57;;;;;;;8.30;2.65;;;4.60;99.90;;;;;;5093772;28;20047;-68
2024/01/13 11:01:26;;;;;;;13.77;5.10;;;4.70;99.90;;;;;;5093157;28;20044;-68
2024/01/13 11:03:54;;;;;;;11.55;2.85;;;4.70;99.90;;;;;;5094945;28;20040;-68
2024/01/13 11:06:21;;;;;;;8.07;2.72;;;4.70;99.90;;;;;;5076691;28;20055;-68
2024/01/13 11:08:47;;;;;;;10.60;3.00;;;4.70;99.90;;;;;;5093017;28;20048;-68
2024/01/13 11:11:19;;;;;;;12.20;3.38;;;4.70;99.90;;;;;;5093338;28;20155;-68
2024/01/13 11:13:54;;;;;;;12.95;3.75;;;4.70;99.90;;;;;;5094555;28;20043;-68
2024/01/13 11:16:23;;;;;;;24.30;11.20;;;4.80;99.90;;;;;;5092607;28;20084;-68
2024/01/13 11:18:53;;;;;;;11.45;4.88;;;4.80;99.90;;;;;;5110531;28;20040;-67
2024/01/13 11:21:27;;;;;;;17.20;7.97;;;4.90;99.90;;;;;;5092536;28;20040;-68
2024/01/13 11:23:52;;;;;;;7.22;2.80;;;4.80;99.90;;;;;;5075640;28;20035;-68
2024/01/13 11:26:37;;;;;;;7.38;2.47;;;4.90;99.90;;;;;;5093581;28;20040;-67
2024/01/13 11:29:17;;;;;;;8.75;2.75;;;4.90;99.90;;;;;;5093435;28;20090;-67
2024/01/13 11:31:45;;;;;;;7.60;3.33;;;5.00;99.90;;;;;;5092834;28;20123;-67
2024/01/13 11:34:16;;;;;;;6.85;2.70;;;5.00;99.90;;;;;;5092673;28;20089;-67
2024/01/13 11:36:48;;;;;;;10.25;3.30;;;5.00;99.90;;;;;;5089500;28;20036;-67
2024/01/13 11:39:16;;;;;;;12.93;4.18;;;5.00;99.90;;;;;;5092292;28;20032;-66
2024/01/13 11:41:46;;;;;;;11.57;3.17;;;5.10;99.90;;;;;;5092678;28;20081;-65
2024/01/13 11:44:20;;;;;;;8.48;2.60;;;5.10;99.90;;;;;;5092046;28;20038;-67
2024/01/13 11:47:05;;;;;;;9.07;3.33;;;5.20;99.90;;;;;;5092512;28;20044;-66
2024/01/13 11:49:38;;;;;;;9.93;3.67;;;5.20;99.90;;;;;;5091582;28;20032;-67
2024/01/13 11:52:05;;;;;;;8.52;2.40;;;5.20;99.90;;;;;;5092446;28;20528;-66
2024/01/13 11:54:32;;;;;;;7.60;2.50;;;5.20;99.90;;;;;;5089328;28;20062;-66
2024/01/13 11:57:00;;;;;;;12.38;3.55;;;5.20;99.90;;;;;;5091723;28;20090;-65
2024/01/13 11:59:26;;;;;;;10.73;3.00;;;5.20;99.90;;;;;;5075426;28;20043;-65
2024/01/13 12:01:53;;;;;;;7.00;2.28;;;5.20;99.90;;;;;;5092420;28;20083;-65
2024/01/13 12:04:19;;;;;;;10.40;2.95;;;5.20;99.90;;;;;;5079880;28;20124;-65
2024/01/13 12:06:50;;;;;;;11.38;2.60;;;5.30;99.90;;;;;;5071005;28;20044;-66
2024/01/13 12:09:19;;;;;;;6.38;2.30;;;5.30;99.90;;;;;;5089431;28;20054;-66
2024/01/13 12:11:59;;;;;;;4.53;1.52;;;5.40;99.90;;;;;;5089548;28;20093;-66
2024/01/13 12:14:29;;;;;;;5.63;2.30;;;5.40;99.90;;;;;;5073517;28;20142;-66
2024/01/13 12:16:56;;;;;;;7.25;2.20;;;5.40;99.90;;;;;;5090497;28;20392;-66
2024/01/13 12:19:25;;;;;;;9.20;3.05;;;5.40;99.90;;;;;;5089427;28;20032;-66
2024/01/13 12:21:51;;;;;;;5.95;1.95;;;5.50;99.90;;;;;;5089898;28;20095;-66
2024/01/13 12:24:16;;;;;;;7.32;2.28;;;5.50;99.90;;;;;;5105034;28;20465;-66
2024/01/13 12:26:43;;;;;;;8.77;3.53;;;5.50;99.90;;;;;;5088492;28;20039;-66
2024/01/13 12:29:10;;;;;;;9.68;2.70;;;5.70;99.90;;;;;;5088579;28;20128;-67
2024/01/13 12:31:37;;;;;;;6.78;3.92;;;5.60;99.90;;;;;;5088218;28;20059;-66
2024/01/13 12:34:33;;;;;;;12.13;4.22;;;5.70;99.90;;;;;;5088421;28;20044;-66
2024/01/13 12:37:00;;;;;;;;;;;5.80;99.90;;;;;;5073004;28;20417;-66
2024/01/13 12:39:25;;;;;;;7.13;2.45;;;5.80;99.90;;;;;;5087539;28;20022;-66
2024/01/13 12:41:54;;;;;;;10.70;3.30;;;5.80;99.90;;;;;;5087732;28;20139;-66
2024/01/13 12:44:23;;;;;;;8.73;2.53;;;5.80;99.90;;;;;;5087893;28;20093;-66
2024/01/13 12:46:56;;;;;;;9.68;3.33;;;5.80;99.90;;;;;;5088088;28;20058;-66